UAL442 KSFO-KSAN
Flight info
| Callsign | UAL442 |
|---|---|
| Flight time | 1h 7m |
| Altitude | 41000 |
| Route | WESLA5 YYUNG LAX COMIX2 |
| Aircraft | B772/H-SDE2E3FGHIJ5LORVWXY/LB1D1 |
Departure
| Time | 2026-04-23 10:57 |
|---|---|
| Airport | San Francisco International Airport (KSFO) |
Arrival
| Time | 2026-04-23 12:04 |
|---|---|
| Airport | San Diego International Airport (KSAN) |
| Time | Latitude | Longitude | Altitude | Speed | Heading |
|---|---|---|---|---|---|
| 2026-04-23 10:12 | 37.61339 | -122.38577 | 45 ft | 0 kts | 67° |
| 2026-04-23 10:44 | 37.61334 | -122.38592 | 26 ft | 4 kts | 67° |
| 2026-04-23 10:44 | 37.61324 | -122.38623 | 25 ft | 4 kts | 67° |
| 2026-04-23 10:44 | 37.61315 | -122.38648 | 25 ft | 4 kts | 61° |
| 2026-04-23 10:44 | 37.61300 | -122.38676 | 24 ft | 4 kts | 46° |
| 2026-04-23 10:45 | 37.61279 | -122.38697 | 24 ft | 4 kts | 26° |
| 2026-04-23 10:45 | 37.61254 | -122.38709 | 25 ft | 4 kts | 10° |
| 2026-04-23 10:45 | 37.61241 | -122.38712 | 26 ft | 4 kts | 7° |
| 2026-04-23 10:45 | 37.61263 | -122.38722 | 26 ft | 4 kts | 322° |
| 2026-04-23 10:46 | 37.61259 | -122.38740 | 26 ft | 4 kts | 231° |
| 2026-04-23 10:46 | 37.61250 | -122.38747 | 25 ft | 4 kts | 207° |
| 2026-04-23 10:46 | 37.61249 | -122.38748 | 26 ft | 5 kts | 208° |
| 2026-04-23 10:48 | 37.61223 | -122.38765 | 26 ft | 0 kts | 207° |
| 2026-04-23 10:48 | 37.61220 | -122.38767 | 26 ft | 8 kts | 207° |
| 2026-04-23 10:49 | 37.61207 | -122.38775 | 26 ft | 0 kts | 207° |
| 2026-04-23 10:50 | 37.61202 | -122.38778 | 26 ft | 6 kts | 207° |
| 2026-04-23 10:50 | 37.61123 | -122.38830 | 26 ft | 13 kts | 207° |
| 2026-04-23 10:50 | 37.61041 | -122.38877 | 26 ft | 12 kts | 188° |
| 2026-04-23 10:50 | 37.60985 | -122.38807 | 26 ft | 12 kts | 116° |
| 2026-04-23 10:51 | 37.60923 | -122.38656 | 26 ft | 21 kts | 117° |
| 2026-04-23 10:51 | 37.60878 | -122.38499 | 26 ft | 18 kts | 97° |
| 2026-04-23 10:51 | 37.60833 | -122.38360 | 26 ft | 16 kts | 117° |
| 2026-04-23 10:51 | 37.60782 | -122.38237 | 26 ft | 18 kts | 118° |
| 2026-04-23 10:52 | 37.60712 | -122.38193 | 114 ft | 8 kts | 168° |
| 2026-04-23 10:52 | 37.60663 | -122.38135 | 26 ft | 20 kts | 121° |
| 2026-04-23 10:52 | 37.60601 | -122.37981 | 26 ft | 12 kts | 105° |
| 2026-04-23 10:52 | 37.60641 | -122.37905 | 26 ft | 11 kts | 29° |
| 2026-04-23 10:53 | 37.60764 | -122.37823 | 26 ft | 25 kts | 27° |
| 2026-04-23 10:53 | 37.60917 | -122.37722 | 26 ft | 25 kts | 27° |
| 2026-04-23 10:53 | 37.61071 | -122.37621 | 26 ft | 27 kts | 27° |
| 2026-04-23 10:53 | 37.61256 | -122.37498 | 26 ft | 32 kts | 28° |
| 2026-04-23 10:54 | 37.61460 | -122.37363 | 26 ft | 25 kts | 27° |
| 2026-04-23 10:54 | 37.61555 | -122.37223 | 26 ft | 21 kts | 74° |
| 2026-04-23 10:54 | 37.61525 | -122.37047 | 26 ft | 21 kts | 117° |
| 2026-04-23 10:54 | 37.61438 | -122.36883 | 26 ft | 25 kts | 133° |
| 2026-04-23 10:55 | 37.61335 | -122.36702 | 26 ft | 25 kts | 118° |
| 2026-04-23 10:55 | 37.61250 | -122.36506 | 26 ft | 25 kts | 118° |
| 2026-04-23 10:55 | 37.61167 | -122.36309 | 26 ft | 25 kts | 118° |
| 2026-04-23 10:55 | 37.61084 | -122.36112 | 26 ft | 24 kts | 118° |
| 2026-04-23 10:56 | 37.61056 | -122.35963 | 26 ft | 17 kts | 69° |
| 2026-04-23 10:56 | 37.61150 | -122.35886 | 26 ft | 17 kts | 1° |
| 2026-04-23 10:56 | 37.61225 | -122.35969 | 26 ft | 11 kts | 298° |
| 2026-04-23 10:56 | 37.61295 | -122.36132 | 26 ft | 48 kts | 298° |
| 2026-04-23 10:57 | 37.61647 | -122.36974 | 35 ft | 167 kts | 297° |
| 2026-04-23 10:57 | 37.62256 | -122.38357 | 1183 ft | 176 kts | 296° |
| 2026-04-23 10:57 | 37.62850 | -122.39732 | 2786 ft | 189 kts | 293° |
| 2026-04-23 10:57 | 37.63488 | -122.41286 | 3417 ft | 213 kts | 294° |
| 2026-04-23 10:58 | 37.64236 | -122.43068 | 3929 ft | 241 kts | 295° |
| 2026-04-23 10:58 | 37.65033 | -122.44872 | 5275 ft | 233 kts | 296° |
| 2026-04-23 10:58 | 37.65825 | -122.46652 | 6485 ft | 232 kts | 295° |
| 2026-04-23 10:58 | 37.66602 | -122.48439 | 7519 ft | 233 kts | 290° |
| 2026-04-23 10:59 | 37.66880 | -122.50498 | 8103 ft | 248 kts | 260° |
| 2026-04-23 10:59 | 37.66213 | -122.52523 | 9078 ft | 257 kts | 233° |
| 2026-04-23 10:59 | 37.64821 | -122.53973 | 10146 ft | 267 kts | 208° |
| 2026-04-23 10:59 | 37.62934 | -122.54552 | 10735 ft | 300 kts | 185° |
| 2026-04-23 11:00 | 37.60802 | -122.54029 | 11390 ft | 324 kts | 164° |
| 2026-04-23 11:00 | 37.58684 | -122.52863 | 12180 ft | 340 kts | 160° |
| 2026-04-23 11:00 | 37.56511 | -122.51555 | 13016 ft | 352 kts | 160° |
| 2026-04-23 11:00 | 37.54250 | -122.50269 | 13938 ft | 361 kts | 162° |
| 2026-04-23 11:01 | 37.51916 | -122.49011 | 14809 ft | 368 kts | 163° |
| 2026-04-23 11:01 | 37.49532 | -122.47860 | 15606 ft | 365 kts | 173° |
| 2026-04-23 11:01 | 37.47061 | -122.47700 | 16363 ft | 349 kts | 197° |
| 2026-04-23 11:01 | 37.44655 | -122.48206 | 17126 ft | 355 kts | 199° |
| 2026-04-23 11:02 | 37.42195 | -122.48701 | 18049 ft | 361 kts | 199° |
| 2026-04-23 11:02 | 37.39701 | -122.49180 | 18967 ft | 363 kts | 198° |
| 2026-04-23 11:02 | 37.37195 | -122.49652 | 19880 ft | 365 kts | 199° |
| 2026-04-23 11:02 | 37.34670 | -122.50124 | 20750 ft | 368 kts | 199° |
| 2026-04-23 11:03 | 37.32124 | -122.50599 | 21607 ft | 372 kts | 199° |
| 2026-04-23 11:03 | 37.29550 | -122.51079 | 22428 ft | 376 kts | 199° |
| 2026-04-23 11:03 | 37.26946 | -122.51563 | 23276 ft | 380 kts | 199° |
| 2026-04-23 11:03 | 37.24351 | -122.52044 | 24086 ft | 384 kts | 199° |
| 2026-04-23 11:04 | 37.21699 | -122.52535 | 24847 ft | 387 kts | 199° |
| 2026-04-23 11:04 | 37.19025 | -122.53029 | 25523 ft | 390 kts | 199° |
| 2026-04-23 11:04 | 37.16325 | -122.53528 | 26278 ft | 393 kts | 199° |
| 2026-04-23 11:04 | 37.13606 | -122.54030 | 27022 ft | 397 kts | 199° |
| 2026-04-23 11:05 | 37.10864 | -122.54535 | 27734 ft | 400 kts | 199° |
| 2026-04-23 11:05 | 37.08094 | -122.55046 | 28417 ft | 404 kts | 200° |
| 2026-04-23 11:05 | 37.05298 | -122.55562 | 29100 ft | 408 kts | 200° |
| 2026-04-23 11:05 | 37.02461 | -122.55977 | 29656 ft | 420 kts | 192° |
| 2026-04-23 11:06 | 36.96522 | -122.53670 | 30566 ft | 476 kts | 159° |
| 2026-04-23 11:06 | 36.93682 | -122.51503 | 31018 ft | 480 kts | 159° |
| 2026-04-23 11:06 | 36.90817 | -122.49326 | 31526 ft | 484 kts | 159° |
| 2026-04-23 11:07 | 36.87929 | -122.47149 | 32041 ft | 486 kts | 159° |
| 2026-04-23 11:07 | 36.85024 | -122.44980 | 32554 ft | 488 kts | 160° |
| 2026-04-23 11:07 | 36.82094 | -122.42811 | 33030 ft | 491 kts | 160° |
| 2026-04-23 11:07 | 36.79147 | -122.40644 | 33445 ft | 493 kts | 160° |
| 2026-04-23 11:08 | 36.76180 | -122.38471 | 33919 ft | 496 kts | 160° |
| 2026-04-23 11:08 | 36.73199 | -122.36292 | 34348 ft | 498 kts | 160° |
| 2026-04-23 11:08 | 36.70200 | -122.34103 | 34723 ft | 501 kts | 160° |
| 2026-04-23 11:08 | 36.67184 | -122.31902 | 35069 ft | 504 kts | 160° |
| 2026-04-23 11:09 | 36.64153 | -122.29691 | 35367 ft | 506 kts | 160° |
| 2026-04-23 11:09 | 36.61109 | -122.27472 | 35692 ft | 509 kts | 160° |
| 2026-04-23 11:09 | 36.58046 | -122.25240 | 35998 ft | 511 kts | 160° |
| 2026-04-23 11:09 | 36.54979 | -122.23007 | 36373 ft | 511 kts | 160° |
| 2026-04-23 11:10 | 36.51917 | -122.20776 | 36822 ft | 509 kts | 160° |
| 2026-04-23 11:10 | 36.48865 | -122.18554 | 37273 ft | 508 kts | 160° |
| 2026-04-23 11:10 | 36.45821 | -122.16342 | 37635 ft | 507 kts | 161° |
| 2026-04-23 11:10 | 36.42777 | -122.14134 | 38010 ft | 507 kts | 161° |
| 2026-04-23 11:11 | 36.39731 | -122.11929 | 38394 ft | 506 kts | 161° |
| 2026-04-23 11:11 | 36.36694 | -122.09732 | 38791 ft | 505 kts | 161° |
| 2026-04-23 11:11 | 36.33659 | -122.07538 | 39114 ft | 504 kts | 161° |
| 2026-04-23 11:11 | 36.30628 | -122.05350 | 39379 ft | 505 kts | 161° |
| 2026-04-23 11:12 | 36.27588 | -122.03157 | 39595 ft | 506 kts | 161° |
| 2026-04-23 11:12 | 36.24546 | -122.00965 | 39865 ft | 506 kts | 160° |
| 2026-04-23 11:12 | 36.21508 | -121.98775 | 40138 ft | 505 kts | 160° |
| 2026-04-23 11:12 | 36.18471 | -121.96589 | 40409 ft | 505 kts | 160° |
| 2026-04-23 11:13 | 36.15437 | -121.94406 | 40663 ft | 505 kts | 160° |
| 2026-04-23 11:13 | 36.12400 | -121.92224 | 40918 ft | 505 kts | 160° |
| 2026-04-23 11:13 | 36.09365 | -121.90046 | 41132 ft | 505 kts | 160° |
| 2026-04-23 11:14 | 36.03263 | -121.85672 | 41226 ft | 507 kts | 160° |
| 2026-04-23 11:14 | 35.97659 | -121.80252 | 41228 ft | 528 kts | 136° |
| 2026-04-23 11:15 | 35.93226 | -121.72973 | 41213 ft | 531 kts | 133° |
| 2026-04-23 11:15 | 35.88839 | -121.65630 | 41219 ft | 532 kts | 134° |
| 2026-04-23 11:16 | 35.84342 | -121.58385 | 41229 ft | 532 kts | 135° |
| 2026-04-23 11:16 | 35.79812 | -121.51231 | 41229 ft | 534 kts | 135° |
| 2026-04-23 11:17 | 35.75235 | -121.44024 | 41231 ft | 535 kts | 135° |
| 2026-04-23 11:17 | 35.70653 | -121.36802 | 41227 ft | 536 kts | 135° |
| 2026-04-23 11:18 | 35.66064 | -121.29575 | 41184 ft | 536 kts | 135° |
| 2026-04-23 11:18 | 35.61478 | -121.22369 | 41238 ft | 535 kts | 135° |
| 2026-04-23 11:19 | 35.56891 | -121.15179 | 41224 ft | 535 kts | 135° |
| 2026-04-23 11:19 | 35.52304 | -121.08001 | 41226 ft | 534 kts | 135° |
| 2026-04-23 11:20 | 35.47827 | -121.00699 | 41216 ft | 537 kts | 133° |
| 2026-04-23 11:20 | 35.44266 | -120.94461 | 41228 ft | 537 kts | 131° |
| 2026-04-23 11:21 | 35.39996 | -120.86943 | 41222 ft | 537 kts | 132° |
| 2026-04-23 11:21 | 35.35687 | -120.79476 | 41195 ft | 536 kts | 133° |
| 2026-04-23 11:22 | 35.31355 | -120.72052 | 41208 ft | 535 kts | 133° |
| 2026-04-23 11:22 | 35.27015 | -120.64640 | 41204 ft | 535 kts | 133° |
| 2026-04-23 11:23 | 35.22672 | -120.57236 | 41206 ft | 536 kts | 133° |
| 2026-04-23 11:23 | 35.18332 | -120.49839 | 41226 ft | 535 kts | 133° |
| 2026-04-23 11:24 | 35.13989 | -120.42456 | 41215 ft | 535 kts | 133° |
| 2026-04-23 11:24 | 35.09640 | -120.35077 | 41225 ft | 534 kts | 133° |
| 2026-04-23 11:24 | 35.07499 | -120.31444 | 41204 ft | 520 kts | 133° |
| 2026-04-23 11:25 | 35.05419 | -120.27905 | 41186 ft | 506 kts | 133° |
| 2026-04-23 11:25 | 35.03394 | -120.24460 | 41209 ft | 495 kts | 134° |
| 2026-04-23 11:25 | 35.01377 | -120.21062 | 41211 ft | 495 kts | 134° |
| 2026-04-23 11:26 | 34.97332 | -120.14272 | 41217 ft | 495 kts | 134° |
| 2026-04-23 11:26 | 34.93290 | -120.07489 | 41198 ft | 495 kts | 134° |
| 2026-04-23 11:27 | 34.89282 | -120.00751 | 41200 ft | 494 kts | 133° |
| 2026-04-23 11:27 | 34.85220 | -119.93936 | 41199 ft | 494 kts | 134° |
| 2026-04-23 11:28 | 34.81203 | -119.87218 | 41202 ft | 494 kts | 134° |
| 2026-04-23 11:28 | 34.77166 | -119.80458 | 41227 ft | 493 kts | 134° |
| 2026-04-23 11:29 | 34.73115 | -119.73723 | 41200 ft | 494 kts | 134° |
| 2026-04-23 11:29 | 34.69052 | -119.66970 | 41214 ft | 496 kts | 133° |
| 2026-04-23 11:30 | 34.64970 | -119.60195 | 41194 ft | 498 kts | 134° |
| 2026-04-23 11:30 | 34.60881 | -119.53410 | 41201 ft | 497 kts | 133° |
| 2026-04-23 11:31 | 34.56787 | -119.46639 | 41180 ft | 498 kts | 134° |
| 2026-04-23 11:31 | 34.52747 | -119.39959 | 41106 ft | 485 kts | 134° |
| 2026-04-23 11:32 | 34.48737 | -119.33342 | 41157 ft | 491 kts | 134° |
| 2026-04-23 11:32 | 34.44683 | -119.26684 | 40709 ft | 489 kts | 134° |
| 2026-04-23 11:32 | 34.42667 | -119.23372 | 40280 ft | 488 kts | 134° |
| 2026-04-23 11:33 | 34.40659 | -119.20075 | 39917 ft | 485 kts | 134° |
| 2026-04-23 11:33 | 34.38662 | -119.16804 | 39574 ft | 481 kts | 135° |
| 2026-04-23 11:33 | 34.36671 | -119.13557 | 39213 ft | 479 kts | 134° |
| 2026-04-23 11:33 | 34.34696 | -119.10319 | 38833 ft | 478 kts | 135° |
| 2026-04-23 11:34 | 34.32731 | -119.07092 | 38424 ft | 475 kts | 134° |
| 2026-04-23 11:34 | 34.30780 | -119.03893 | 38085 ft | 470 kts | 135° |
| 2026-04-23 11:34 | 34.28846 | -119.00733 | 37735 ft | 465 kts | 134° |
| 2026-04-23 11:34 | 34.26927 | -118.97600 | 37381 ft | 462 kts | 135° |
| 2026-04-23 11:35 | 34.25020 | -118.94493 | 37046 ft | 458 kts | 134° |
| 2026-04-23 11:35 | 34.23128 | -118.91414 | 36731 ft | 455 kts | 134° |
| 2026-04-23 11:35 | 34.21247 | -118.88357 | 36404 ft | 451 kts | 135° |
| 2026-04-23 11:35 | 34.19396 | -118.85349 | 36091 ft | 448 kts | 135° |
| 2026-04-23 11:36 | 34.17527 | -118.82315 | 35771 ft | 445 kts | 135° |
| 2026-04-23 11:36 | 34.15685 | -118.79327 | 35473 ft | 442 kts | 135° |
| 2026-04-23 11:36 | 34.13854 | -118.76358 | 35166 ft | 439 kts | 135° |
| 2026-04-23 11:36 | 34.12038 | -118.73416 | 34895 ft | 434 kts | 135° |
| 2026-04-23 11:37 | 34.10254 | -118.70515 | 34634 ft | 430 kts | 135° |
| 2026-04-23 11:37 | 34.08472 | -118.67633 | 34383 ft | 425 kts | 135° |
| 2026-04-23 11:37 | 34.06710 | -118.64791 | 34084 ft | 420 kts | 135° |
| 2026-04-23 11:37 | 34.04977 | -118.61993 | 33483 ft | 415 kts | 135° |
| 2026-04-23 11:38 | 34.03250 | -118.59209 | 32771 ft | 414 kts | 135° |
| 2026-04-23 11:38 | 34.01528 | -118.56438 | 32076 ft | 413 kts | 135° |
| 2026-04-23 11:38 | 33.99797 | -118.53657 | 31544 ft | 416 kts | 134° |
| 2026-04-23 11:38 | 33.98069 | -118.50873 | 31304 ft | 412 kts | 134° |
| 2026-04-23 11:39 | 33.96364 | -118.48123 | 31093 ft | 406 kts | 134° |
| 2026-04-23 11:39 | 33.94685 | -118.45421 | 30895 ft | 401 kts | 134° |
| 2026-04-23 11:39 | 33.92997 | -118.42785 | 30595 ft | 397 kts | 138° |
| 2026-04-23 11:39 | 33.91146 | -118.40319 | 30238 ft | 394 kts | 141° |
| 2026-04-23 11:40 | 33.89276 | -118.37918 | 29854 ft | 392 kts | 141° |
| 2026-04-23 11:40 | 33.87415 | -118.35536 | 29510 ft | 389 kts | 141° |
| 2026-04-23 11:40 | 33.85571 | -118.33167 | 29179 ft | 386 kts | 141° |
| 2026-04-23 11:40 | 33.83745 | -118.30811 | 28832 ft | 384 kts | 141° |
| 2026-04-23 11:41 | 33.81933 | -118.28469 | 28477 ft | 381 kts | 141° |
| 2026-04-23 11:41 | 33.80132 | -118.26140 | 28134 ft | 379 kts | 141° |
| 2026-04-23 11:41 | 33.78368 | -118.23860 | 27806 ft | 376 kts | 141° |
| 2026-04-23 11:41 | 33.76600 | -118.21565 | 27496 ft | 373 kts | 140° |
| 2026-04-23 11:42 | 33.74855 | -118.19275 | 27143 ft | 371 kts | 140° |
| 2026-04-23 11:42 | 33.73097 | -118.16960 | 26794 ft | 368 kts | 140° |
| 2026-04-23 11:42 | 33.71396 | -118.14716 | 26333 ft | 360 kts | 140° |
| 2026-04-23 11:42 | 33.69733 | -118.12528 | 25704 ft | 359 kts | 140° |
| 2026-04-23 11:43 | 33.68051 | -118.10321 | 25082 ft | 357 kts | 140° |
| 2026-04-23 11:43 | 33.66379 | -118.08129 | 24520 ft | 354 kts | 140° |
| 2026-04-23 11:43 | 33.64729 | -118.05965 | 24002 ft | 349 kts | 140° |
| 2026-04-23 11:43 | 33.63099 | -118.03829 | 23423 ft | 345 kts | 141° |
| 2026-04-23 11:44 | 33.61481 | -118.01714 | 22807 ft | 345 kts | 140° |
| 2026-04-23 11:44 | 33.59858 | -117.99593 | 22458 ft | 343 kts | 140° |
| 2026-04-23 11:44 | 33.58256 | -117.97496 | 22189 ft | 338 kts | 140° |
| 2026-04-23 11:44 | 33.56656 | -117.95409 | 21614 ft | 344 kts | 140° |
| 2026-04-23 11:45 | 33.55002 | -117.93271 | 20884 ft | 355 kts | 141° |
| 2026-04-23 11:45 | 33.53249 | -117.91170 | 20345 ft | 358 kts | 143° |
| 2026-04-23 11:45 | 33.51444 | -117.89092 | 19829 ft | 362 kts | 143° |
| 2026-04-23 11:45 | 33.49619 | -117.87001 | 19356 ft | 364 kts | 143° |
| 2026-04-23 11:46 | 33.47794 | -117.84897 | 18974 ft | 363 kts | 142° |
| 2026-04-23 11:46 | 33.45985 | -117.82801 | 18649 ft | 361 kts | 142° |
| 2026-04-23 11:46 | 33.44187 | -117.80717 | 18271 ft | 358 kts | 142° |
| 2026-04-23 11:46 | 33.42377 | -117.78699 | 17908 ft | 353 kts | 144° |
| 2026-04-23 11:47 | 33.40549 | -117.76751 | 17542 ft | 351 kts | 144° |
| 2026-04-23 11:47 | 33.38725 | -117.74826 | 17140 ft | 349 kts | 144° |
| 2026-04-23 11:47 | 33.36911 | -117.72908 | 16759 ft | 347 kts | 144° |
| 2026-04-23 11:47 | 33.35107 | -117.70995 | 16392 ft | 346 kts | 144° |
| 2026-04-23 11:48 | 33.33316 | -117.69088 | 16028 ft | 344 kts | 144° |
| 2026-04-23 11:48 | 33.31535 | -117.67190 | 15655 ft | 342 kts | 144° |
| 2026-04-23 11:48 | 33.29766 | -117.65303 | 15298 ft | 340 kts | 144° |
| 2026-04-23 11:48 | 33.28004 | -117.63425 | 15073 ft | 338 kts | 144° |
| 2026-04-23 11:49 | 33.26243 | -117.61550 | 15090 ft | 340 kts | 144° |
| 2026-04-23 11:49 | 33.24475 | -117.59673 | 15059 ft | 339 kts | 144° |
| 2026-04-23 11:49 | 33.22716 | -117.57816 | 14921 ft | 337 kts | 144° |
| 2026-04-23 11:49 | 33.20962 | -117.55970 | 14691 ft | 334 kts | 144° |
| 2026-04-23 11:50 | 33.19224 | -117.54142 | 14328 ft | 333 kts | 144° |
| 2026-04-23 11:50 | 33.17496 | -117.52324 | 14070 ft | 328 kts | 144° |
| 2026-04-23 11:50 | 33.15801 | -117.50540 | 13849 ft | 322 kts | 144° |
| 2026-04-23 11:50 | 33.14150 | -117.48806 | 13513 ft | 320 kts | 144° |
| 2026-04-23 11:51 | 33.12423 | -117.47168 | 13141 ft | 315 kts | 150° |
| 2026-04-23 11:51 | 33.10625 | -117.45700 | 12761 ft | 313 kts | 152° |
| 2026-04-23 11:51 | 33.08819 | -117.44243 | 12405 ft | 313 kts | 152° |
| 2026-04-23 11:51 | 33.07029 | -117.42775 | 12041 ft | 312 kts | 151° |
| 2026-04-23 11:52 | 33.05243 | -117.41296 | 11664 ft | 312 kts | 150° |
| 2026-04-23 11:52 | 33.03468 | -117.39814 | 11318 ft | 312 kts | 150° |
| 2026-04-23 11:52 | 33.01696 | -117.38327 | 10951 ft | 311 kts | 150° |
| 2026-04-23 11:52 | 32.99926 | -117.36841 | 10596 ft | 311 kts | 149° |
| 2026-04-23 11:53 | 32.98156 | -117.35355 | 10261 ft | 310 kts | 149° |
| 2026-04-23 11:53 | 32.96416 | -117.33894 | 10119 ft | 302 kts | 149° |
| 2026-04-23 11:53 | 32.94706 | -117.32460 | 9773 ft | 301 kts | 149° |
| 2026-04-23 11:53 | 32.93006 | -117.31038 | 9571 ft | 294 kts | 149° |
| 2026-04-23 11:54 | 32.91350 | -117.29652 | 9361 ft | 289 kts | 149° |
| 2026-04-23 11:54 | 32.89707 | -117.28286 | 9056 ft | 288 kts | 149° |
| 2026-04-23 11:54 | 32.88068 | -117.26925 | 8757 ft | 287 kts | 149° |
| 2026-04-23 11:54 | 32.86436 | -117.25570 | 8452 ft | 286 kts | 149° |
| 2026-04-23 11:55 | 32.84838 | -117.24241 | 8151 ft | 277 kts | 148° |
| 2026-04-23 11:55 | 32.83286 | -117.22955 | 7845 ft | 270 kts | 148° |
| 2026-04-23 11:55 | 32.81785 | -117.21634 | 7561 ft | 266 kts | 138° |
| 2026-04-23 11:55 | 32.80834 | -117.19772 | 7311 ft | 264 kts | 107° |
| 2026-04-23 11:56 | 32.80390 | -117.17683 | 7059 ft | 261 kts | 104° |
| 2026-04-23 11:56 | 32.79932 | -117.15600 | 6822 ft | 268 kts | 105° |
| 2026-04-23 11:56 | 32.79450 | -117.13443 | 6554 ft | 270 kts | 105° |
| 2026-04-23 11:56 | 32.78970 | -117.11296 | 6356 ft | 266 kts | 105° |
| 2026-04-23 11:57 | 32.78502 | -117.09204 | 6221 ft | 258 kts | 105° |
| 2026-04-23 11:57 | 32.78047 | -117.07168 | 6096 ft | 251 kts | 105° |
| 2026-04-23 11:57 | 32.77589 | -117.05188 | 5919 ft | 247 kts | 106° |
| 2026-04-23 11:57 | 32.77115 | -117.03243 | 5724 ft | 243 kts | 106° |
| 2026-04-23 11:58 | 32.76647 | -117.01328 | 5533 ft | 240 kts | 106° |
| 2026-04-23 11:58 | 32.76185 | -116.99442 | 5346 ft | 236 kts | 106° |
| 2026-04-23 11:58 | 32.75675 | -116.97630 | 5123 ft | 228 kts | 117° |
| 2026-04-23 11:58 | 32.74690 | -116.96217 | 4913 ft | 220 kts | 144° |
| 2026-04-23 11:59 | 32.73321 | -116.95478 | 4602 ft | 215 kts | 171° |
| 2026-04-23 11:59 | 32.71857 | -116.95475 | 4334 ft | 208 kts | 193° |
| 2026-04-23 11:59 | 32.70535 | -116.96063 | 4100 ft | 201 kts | 215° |
| 2026-04-23 11:59 | 32.69543 | -116.97177 | 3865 ft | 194 kts | 236° |
| 2026-04-23 12:00 | 32.68923 | -116.98578 | 3613 ft | 189 kts | 255° |
| 2026-04-23 12:00 | 32.68812 | -117.00087 | 3379 ft | 181 kts | 278° |
| 2026-04-23 12:00 | 32.69089 | -117.01510 | 3146 ft | 174 kts | 287° |
| 2026-04-23 12:00 | 32.69421 | -117.02850 | 2908 ft | 162 kts | 287° |
| 2026-04-23 12:01 | 32.69721 | -117.04068 | 2727 ft | 146 kts | 288° |
| 2026-04-23 12:01 | 32.69994 | -117.05176 | 2533 ft | 135 kts | 288° |
| 2026-04-23 12:01 | 32.70251 | -117.06224 | 2413 ft | 132 kts | 288° |
| 2026-04-23 12:01 | 32.70512 | -117.07288 | 2254 ft | 134 kts | 288° |
| 2026-04-23 12:02 | 32.70773 | -117.08349 | 2168 ft | 134 kts | 288° |
| 2026-04-23 12:02 | 32.71036 | -117.09418 | 2124 ft | 136 kts | 288° |
| 2026-04-23 12:02 | 32.71300 | -117.10505 | 1980 ft | 139 kts | 287° |
| 2026-04-23 12:02 | 32.71568 | -117.11614 | 1640 ft | 139 kts | 287° |
| 2026-04-23 12:03 | 32.71837 | -117.12703 | 1228 ft | 135 kts | 287° |
| 2026-04-23 12:03 | 32.72100 | -117.13759 | 990 ft | 134 kts | 286° |
| 2026-04-23 12:03 | 32.72357 | -117.14839 | 736 ft | 136 kts | 286° |
| 2026-04-23 12:03 | 32.72614 | -117.15913 | 489 ft | 135 kts | 286° |
| 2026-04-23 12:04 | 32.72873 | -117.16974 | 269 ft | 134 kts | 286° |
| 2026-04-23 12:04 | 32.73129 | -117.18036 | 69 ft | 133 kts | 286° |
| 2026-04-23 12:04 | 32.73380 | -117.19053 | 30 ft | 116 kts | 286° |
| 2026-04-23 12:04 | 32.73548 | -117.19752 | 31 ft | 45 kts | 286° |
| 2026-04-23 12:05 | 32.73626 | -117.20076 | 27 ft | 26 kts | 285° |
| 2026-04-23 12:05 | 32.73611 | -117.20200 | 27 ft | 10 kts | 210° |
| 2026-04-23 12:05 | 32.73574 | -117.20244 | 27 ft | 8 kts | 259° |
| 2026-04-23 12:05 | 32.73585 | -117.20328 | 27 ft | 13 kts | 285° |
| 2026-04-23 12:06 | 32.73572 | -117.20427 | 26 ft | 12 kts | 229° |
| 2026-04-23 12:06 | 32.73516 | -117.20503 | 27 ft | 11 kts | 229° |
| 2026-04-23 12:06 | 32.73376 | -117.20556 | 29 ft | 11 kts | 181° |
| 2026-04-23 12:07 | 32.73301 | -117.20548 | 31 ft | 10 kts | 172° |
| 2026-04-23 12:07 | 32.73261 | -117.20540 | 28 ft | 2 kts | 171° |
| 2026-04-23 12:07 | 32.73248 | -117.20538 | 28 ft | 1 kts | 171° |